createdAt,value
2018-10-18T00:00:50.712Z,889.01
2018-10-18T00:01:50.706Z,889.00
2018-10-18T00:02:50.698Z,889.01
2018-10-18T00:03:50.678Z,889.01
2018-10-18T00:04:50.672Z,889.02
2018-10-18T00:05:50.661Z,889.02
2018-10-18T00:06:50.650Z,888.98
2018-10-18T00:07:50.631Z,889.01
2018-10-18T00:08:50.621Z,889.01
2018-10-18T00:09:50.611Z,889.00
2018-10-18T00:10:50.597Z,889.03
2018-10-18T00:11:50.589Z,889.02
2018-10-18T00:12:50.575Z,889.01
2018-10-18T00:13:50.563Z,888.98
2018-10-18T00:14:50.556Z,888.97
2018-10-18T00:15:50.544Z,888.95
2018-10-18T00:16:50.530Z,888.96
2018-10-18T00:17:50.522Z,888.99
2018-10-18T00:18:50.505Z,889.00
2018-10-18T00:19:50.493Z,888.97
2018-10-18T00:20:50.483Z,888.99
2018-10-18T00:21:50.473Z,888.98
2018-10-18T00:22:50.458Z,888.99
2018-10-18T00:23:50.452Z,888.97
2018-10-18T00:24:50.440Z,888.99
2018-10-18T00:25:50.424Z,888.98
2018-10-18T00:26:50.408Z,889.00
2018-10-18T00:27:50.402Z,889.01
2018-10-18T00:28:50.394Z,888.98
2018-10-18T00:29:50.380Z,888.96
2018-10-18T00:30:50.367Z,888.94
2018-10-18T00:31:50.355Z,888.96
2018-10-18T00:32:50.345Z,888.96
2018-10-18T00:33:50.331Z,888.92
2018-10-18T00:34:50.317Z,888.97
2018-10-18T00:35:50.311Z,888.98
2018-10-18T00:36:50.289Z,888.97
2018-10-18T00:37:50.282Z,888.99
2018-10-18T00:38:50.273Z,888.99
2018-10-18T00:39:50.260Z,888.99
2018-10-18T00:40:50.244Z,888.97
2018-10-18T00:41:50.234Z,888.98
2018-10-18T00:42:50.222Z,888.96
2018-10-18T00:43:50.212Z,888.93
2018-10-18T00:44:50.198Z,888.95
2018-10-18T00:45:50.192Z,888.90
2018-10-18T00:46:50.176Z,888.90
2018-10-18T00:47:50.169Z,888.93
2018-10-18T00:48:50.150Z,888.94
2018-10-18T00:49:50.143Z,888.94
2018-10-18T00:50:50.125Z,888.91
2018-10-18T00:51:50.112Z,888.94
2018-10-18T00:52:50.106Z,888.92
2018-10-18T00:53:50.094Z,888.93
2018-10-18T00:54:50.079Z,888.94
2018-10-18T00:55:50.061Z,888.93
2018-10-18T00:56:50.057Z,888.94
2018-10-18T00:57:50.040Z,888.90
2018-10-18T00:58:50.029Z,888.87
2018-10-18T00:59:50.019Z,888.86
2018-10-18T01:00:50.009Z,888.88
2018-10-18T01:01:49.997Z,888.86
2018-10-18T01:02:49.994Z,888.86
2018-10-18T01:03:49.974Z,888.83
2018-10-18T01:04:49.965Z,888.81
2018-10-18T01:05:49.944Z,888.84
2018-10-18T01:06:49.940Z,888.81
2018-10-18T01:07:49.927Z,888.79
2018-10-18T01:08:49.914Z,888.79
2018-10-18T01:09:49.905Z,888.76
2018-10-18T01:10:49.887Z,888.76
2018-10-18T01:11:49.886Z,888.75
2018-10-18T01:12:49.867Z,888.77
2018-10-18T01:13:49.851Z,888.77
2018-10-18T01:14:49.835Z,888.73
2018-10-18T01:15:49.831Z,888.71
2018-10-18T01:16:49.815Z,888.72
2018-10-18T01:17:49.799Z,888.72
2018-10-18T01:18:49.795Z,888.77
2018-10-18T01:19:49.782Z,888.71
2018-10-18T01:20:49.773Z,888.72
2018-10-18T01:21:49.760Z,888.71
2018-10-18T01:22:49.749Z,888.68
2018-10-18T01:23:49.733Z,888.68
2018-10-18T01:24:49.723Z,888.67
2018-10-18T01:25:49.708Z,888.67
2018-10-18T01:26:49.702Z,888.65
2018-10-18T01:27:49.687Z,888.65
2018-10-18T01:28:49.680Z,888.67
2018-10-18T01:29:49.661Z,888.65
2018-10-18T01:30:49.664Z,888.63
2018-10-18T01:31:49.640Z,888.68
2018-10-18T01:32:49.636Z,888.66
2018-10-18T01:33:49.618Z,888.67
2018-10-18T01:34:49.613Z,888.65
2018-10-18T01:35:49.589Z,888.65
2018-10-18T01:36:49.577Z,888.64
2018-10-18T01:37:49.564Z,888.65
2018-10-18T01:38:49.552Z,888.62
2018-10-18T01:39:49.545Z,888.62
2018-10-18T01:40:49.529Z,888.62
2018-10-18T01:41:49.519Z,888.61
2018-10-18T01:42:49.506Z,888.61
2018-10-18T01:43:49.494Z,888.60
2018-10-18T01:44:49.489Z,888.55
2018-10-18T01:45:49.480Z,888.55
2018-10-18T01:46:49.458Z,888.55
2018-10-18T01:47:49.450Z,888.51
2018-10-18T01:48:49.442Z,888.56
2018-10-18T01:49:49.424Z,888.52
2018-10-18T01:50:49.415Z,888.53
2018-10-18T01:51:49.405Z,888.49
2018-10-18T01:52:49.389Z,888.53
2018-10-18T01:53:49.379Z,888.53
2018-10-18T01:54:49.366Z,888.54
2018-10-18T01:55:49.352Z,888.52
2018-10-18T01:56:49.344Z,888.51
2018-10-18T01:57:49.325Z,888.54
2018-10-18T01:58:49.317Z,888.54
2018-10-18T01:59:49.301Z,888.51
2018-10-18T02:00:49.295Z,888.52
2018-10-18T02:01:49.281Z,888.48
2018-10-18T02:02:49.273Z,888.46
2018-10-18T02:03:49.257Z,888.46
2018-10-18T02:04:49.247Z,888.45
2018-10-18T02:05:49.233Z,888.47
2018-10-18T02:06:49.220Z,888.41
2018-10-18T02:07:49.216Z,888.47
2018-10-18T02:08:49.197Z,888.40
2018-10-18T02:09:49.186Z,888.48
2018-10-18T02:10:49.175Z,888.43
2018-10-18T02:11:49.162Z,888.42
2018-10-18T02:12:49.146Z,888.41
2018-10-18T02:13:49.147Z,888.42
2018-10-18T02:14:49.123Z,888.42
2018-10-18T02:15:49.111Z,888.38
2018-10-18T02:16:49.098Z,888.38
2018-10-18T02:17:49.087Z,888.43
2018-10-18T02:18:49.079Z,888.41
2018-10-18T02:19:49.066Z,888.43
2018-10-18T02:20:49.056Z,888.42
2018-10-18T02:21:49.044Z,888.42
2018-10-18T02:22:49.026Z,888.43
2018-10-18T02:23:49.018Z,888.40
2018-10-18T02:24:49.010Z,888.44
2018-10-18T02:25:48.995Z,888.42
2018-10-18T02:26:48.993Z,888.39
2018-10-18T02:27:48.974Z,888.38
2018-10-18T02:28:48.989Z,888.39
2018-10-18T02:29:48.943Z,888.36
2018-10-18T02:30:48.939Z,888.37
2018-10-18T02:31:48.926Z,888.33
2018-10-18T02:32:48.912Z,888.35
2018-10-18T02:33:48.896Z,888.36
2018-10-18T02:34:48.890Z,888.36
2018-10-18T02:35:48.880Z,888.35
2018-10-18T02:36:48.862Z,888.34
2018-10-18T02:37:48.852Z,888.34
2018-10-18T02:38:48.839Z,888.37
2018-10-18T02:39:48.827Z,888.40
2018-10-18T02:40:48.816Z,888.38
2018-10-18T02:41:48.803Z,888.40
2018-10-18T02:42:48.783Z,888.42
2018-10-18T02:43:48.778Z,888.37
2018-10-18T02:44:48.775Z,888.36
2018-10-18T02:45:48.753Z,888.39
2018-10-18T02:46:48.749Z,888.41
2018-10-18T02:47:48.736Z,888.40
2018-10-18T02:48:48.716Z,888.40
2018-10-18T02:49:48.708Z,888.35
2018-10-18T02:50:48.698Z,888.38
2018-10-18T02:51:48.686Z,888.37
2018-10-18T02:52:48.672Z,888.35
2018-10-18T02:53:48.656Z,888.36
2018-10-18T02:54:48.643Z,888.39
2018-10-18T02:55:48.637Z,888.35
2018-10-18T02:56:48.621Z,888.38
2018-10-18T02:57:48.613Z,888.38
2018-10-18T02:58:48.604Z,888.39
2018-10-18T02:59:48.594Z,888.40
2018-10-18T03:00:48.576Z,888.42
2018-10-18T03:01:48.589Z,888.45
2018-10-18T03:02:48.551Z,888.46
2018-10-18T03:03:48.537Z,888.45
2018-10-18T03:04:48.524Z,888.37
2018-10-18T03:05:48.518Z,888.42
2018-10-18T03:06:48.507Z,888.40
2018-10-18T03:07:48.496Z,888.41
2018-10-18T03:08:48.483Z,888.36
2018-10-18T03:09:48.469Z,888.37
2018-10-18T03:10:48.454Z,888.35
2018-10-18T03:11:48.450Z,888.37
2018-10-18T03:12:48.445Z,888.37
2018-10-18T03:13:48.424Z,888.37
2018-10-18T03:14:48.417Z,888.37
2018-10-18T03:15:48.431Z,888.38
2018-10-18T03:16:48.393Z,888.38
2018-10-18T03:17:48.374Z,888.40
2018-10-18T03:18:48.360Z,888.43
2018-10-18T03:19:48.354Z,888.42
2018-10-18T03:20:48.337Z,888.40
2018-10-18T03:21:48.328Z,888.42
2018-10-18T03:22:48.317Z,888.38
2018-10-18T03:23:48.305Z,888.39
2018-10-18T03:24:48.297Z,888.40
2018-10-18T03:25:48.281Z,888.41
2018-10-18T03:26:48.266Z,888.43
2018-10-18T03:27:48.262Z,888.46
2018-10-18T03:28:48.244Z,888.46
2018-10-18T03:29:48.228Z,888.44
2018-10-18T03:30:48.221Z,888.47
2018-10-18T03:31:48.207Z,888.46
2018-10-18T03:32:48.197Z,888.43
2018-10-18T03:33:48.186Z,888.44
2018-10-18T03:34:48.170Z,888.39
2018-10-18T03:35:48.158Z,888.42
2018-10-18T03:36:48.152Z,888.42
2018-10-18T03:37:48.141Z,888.38
2018-10-18T03:38:48.130Z,888.41
2018-10-18T03:39:48.112Z,888.40
2018-10-18T03:40:48.097Z,888.41
2018-10-18T03:41:48.088Z,888.41
2018-10-18T03:42:48.074Z,888.37
2018-10-18T03:43:48.062Z,888.39
2018-10-18T03:44:48.052Z,888.39
2018-10-18T03:45:48.039Z,888.42
2018-10-18T03:46:48.028Z,888.40
2018-10-18T03:47:48.013Z,888.44
2018-10-18T03:48:48.005Z,888.42
2018-10-18T03:49:47.987Z,888.38
2018-10-18T03:50:47.980Z,888.38
2018-10-18T03:51:47.966Z,888.40
2018-10-18T03:52:47.956Z,888.36
2018-10-18T03:53:47.945Z,888.32
2018-10-18T03:54:47.932Z,888.30
2018-10-18T03:55:47.919Z,888.33
2018-10-18T03:56:47.912Z,888.31
2018-10-18T03:57:47.897Z,888.28
2018-10-18T03:58:47.881Z,888.28
2018-10-18T03:59:48.007Z,888.29
2018-10-18T04:00:47.862Z,888.29
2018-10-18T04:01:47.872Z,888.29
2018-10-18T04:02:47.833Z,888.30
2018-10-18T04:03:47.826Z,888.29
2018-10-18T04:04:47.812Z,888.28
2018-10-18T04:05:47.797Z,888.27
2018-10-18T04:06:47.789Z,888.27
2018-10-18T04:07:47.776Z,888.25
2018-10-18T04:08:47.764Z,888.24
2018-10-18T04:09:47.752Z,888.24
2018-10-18T04:10:47.743Z,888.21
2018-10-18T04:11:47.730Z,888.20
2018-10-18T04:12:47.793Z,888.20
2018-10-18T04:13:47.707Z,888.18
2018-10-18T04:14:47.700Z,888.20
2018-10-18T04:15:47.677Z,888.16
2018-10-18T04:16:47.667Z,888.19
2018-10-18T04:17:47.670Z,888.18
2018-10-18T04:18:47.642Z,888.18
2018-10-18T04:19:47.631Z,888.19
2018-10-18T04:20:47.621Z,888.22
2018-10-18T04:21:47.605Z,888.18
2018-10-18T04:22:47.601Z,888.20
2018-10-18T04:23:47.590Z,888.19
2018-10-18T04:24:47.574Z,888.20
2018-10-18T04:25:47.557Z,888.19
2018-10-18T04:26:47.546Z,888.15
2018-10-18T04:27:47.535Z,888.18
2018-10-18T04:28:47.529Z,888.20
2018-10-18T04:29:47.514Z,888.15
2018-10-18T04:30:47.499Z,888.13
2018-10-18T04:31:47.489Z,888.19
2018-10-18T04:32:47.473Z,888.16
2018-10-18T04:33:47.459Z,888.17
2018-10-18T04:34:47.468Z,888.20
2018-10-18T04:35:47.464Z,888.19
2018-10-18T04:36:47.432Z,888.18
2018-10-18T04:37:47.416Z,888.18
2018-10-18T04:38:47.405Z,888.18
2018-10-18T04:39:47.394Z,888.22
2018-10-18T04:40:47.381Z,888.19
2018-10-18T04:41:47.369Z,888.21
2018-10-18T04:42:47.357Z,888.22
2018-10-18T04:43:47.347Z,888.23
2018-10-18T04:44:47.331Z,888.21
2018-10-18T04:45:47.320Z,888.21
2018-10-18T04:46:47.310Z,888.18
2018-10-18T04:47:47.445Z,888.18
2018-10-18T04:48:47.344Z,888.22
2018-10-18T04:49:47.272Z,888.22
2018-10-18T04:50:47.259Z,888.21
2018-10-18T04:51:47.251Z,888.17
2018-10-18T04:52:47.240Z,888.20
2018-10-18T04:53:47.231Z,888.19
2018-10-18T04:54:47.211Z,888.19
2018-10-18T04:55:47.201Z,888.19
2018-10-18T04:56:47.266Z,888.19
2018-10-18T04:57:47.178Z,888.21
2018-10-18T04:58:47.165Z,888.22
2018-10-18T04:59:47.157Z,888.21
2018-10-18T05:00:47.139Z,888.22
2018-10-18T05:01:47.129Z,888.23
2018-10-18T05:02:47.139Z,888.22
2018-10-18T05:03:47.105Z,888.24
2018-10-18T05:04:47.109Z,888.27
2018-10-18T05:05:47.082Z,888.27
2018-10-18T05:06:47.111Z,888.28
2018-10-18T05:07:47.057Z,888.30
2018-10-18T05:08:47.046Z,888.28
2018-10-18T05:09:47.033Z,888.24
2018-10-18T05:10:47.024Z,888.28
2018-10-18T05:11:47.013Z,888.24
2018-10-18T05:12:47.080Z,888.25
2018-10-18T05:13:46.984Z,888.27
2018-10-18T05:14:46.978Z,888.30
2018-10-18T05:15:46.964Z,888.25
2018-10-18T05:16:46.956Z,888.25
2018-10-18T05:17:46.942Z,888.26
2018-10-18T05:18:46.933Z,888.24
2018-10-18T05:19:46.913Z,888.22
2018-10-18T05:20:46.903Z,888.23
2018-10-18T05:21:46.889Z,888.23
2018-10-18T05:22:46.877Z,888.22
2018-10-18T05:23:46.886Z,888.23
2018-10-18T05:24:46.861Z,888.23
2018-10-18T05:25:46.844Z,888.26
2018-10-18T05:26:46.834Z,888.24
2018-10-18T05:27:46.816Z,888.26
2018-10-18T05:28:46.808Z,888.28
2018-10-18T05:29:46.795Z,888.27
2018-10-18T05:30:46.784Z,888.29
2018-10-18T05:31:46.831Z,888.27
2018-10-18T05:32:46.764Z,888.30
2018-10-18T05:33:46.749Z,888.31
2018-10-18T05:34:46.743Z,888.33
2018-10-18T05:35:46.720Z,888.30
2018-10-18T05:36:46.719Z,888.28
2018-10-18T05:37:46.783Z,888.31
2018-10-18T05:38:46.695Z,888.27
2018-10-18T05:39:46.676Z,888.28
2018-10-18T05:40:46.663Z,888.27
2018-10-18T05:41:46.656Z,888.23
2018-10-18T05:42:46.637Z,888.29
2018-10-18T05:43:46.625Z,888.30
2018-10-18T05:44:46.611Z,888.29
2018-10-18T05:45:46.601Z,888.27
2018-10-18T05:46:46.756Z,888.32
2018-10-18T05:47:46.622Z,888.28
2018-10-18T05:48:46.564Z,888.28
2018-10-18T05:49:46.555Z,888.28
2018-10-18T05:50:46.544Z,888.35
2018-10-18T05:51:46.530Z,888.38
2018-10-18T05:52:46.524Z,888.39
2018-10-18T05:53:46.658Z,888.39
2018-10-18T05:54:46.498Z,888.41
2018-10-18T05:55:46.486Z,888.41
2018-10-18T05:56:46.475Z,888.41
2018-10-18T05:57:46.458Z,888.42
2018-10-18T05:58:46.449Z,888.43
2018-10-18T05:59:46.431Z,888.45
2018-10-18T06:00:46.421Z,888.42
2018-10-18T06:01:46.407Z,888.45
2018-10-18T06:02:46.395Z,888.44
2018-10-18T06:03:46.384Z,888.46
2018-10-18T06:04:46.373Z,888.47
2018-10-18T06:05:46.361Z,888.47
2018-10-18T06:06:46.353Z,888.49
2018-10-18T06:07:46.338Z,888.47
2018-10-18T06:08:46.322Z,888.46
2018-10-18T06:09:46.331Z,888.47
2018-10-18T06:10:46.297Z,888.49
2018-10-18T06:11:46.293Z,888.48
2018-10-18T06:12:46.279Z,888.50
2018-10-18T06:13:46.265Z,888.48
2018-10-18T06:14:46.252Z,888.47
2018-10-18T06:15:46.242Z,888.50
2018-10-18T06:16:46.226Z,888.49
2018-10-18T06:17:46.213Z,888.53
2018-10-18T06:18:46.203Z,888.54
2018-10-18T06:19:46.191Z,888.56
2018-10-18T06:20:46.178Z,888.57
2018-10-18T06:21:46.163Z,888.57
2018-10-18T06:22:46.240Z,888.58
2018-10-18T06:23:46.141Z,888.57
2018-10-18T06:24:46.131Z,888.54
2018-10-18T06:25:46.119Z,888.62
2018-10-18T06:26:46.106Z,888.57
2018-10-18T06:27:46.093Z,888.58
2018-10-18T06:28:46.084Z,888.62
2018-10-18T06:29:46.071Z,888.63
2018-10-18T06:30:46.066Z,888.65
2018-10-18T06:31:46.064Z,888.67
2018-10-18T06:32:46.038Z,888.68
2018-10-18T06:33:46.018Z,888.70
2018-10-18T06:34:46.007Z,888.68
2018-10-18T06:35:46.000Z,888.70
2018-10-18T06:36:45.990Z,888.71
2018-10-18T06:37:45.979Z,888.69
2018-10-18T06:38:45.964Z,888.78
2018-10-18T06:39:45.949Z,888.76
2018-10-18T06:40:45.938Z,888.69
2018-10-18T06:41:45.924Z,888.74
2018-10-18T06:42:45.912Z,888.75
2018-10-18T06:43:45.900Z,888.74
2018-10-18T06:44:45.886Z,888.74
2018-10-18T06:45:45.879Z,888.69
2018-10-18T06:46:45.896Z,888.69
2018-10-18T06:47:45.973Z,888.67
2018-10-18T06:48:45.843Z,888.70
2018-10-18T06:49:45.825Z,888.68
2018-10-18T06:50:45.815Z,888.68
2018-10-18T06:51:45.801Z,888.65
2018-10-18T06:52:45.793Z,888.69
2018-10-18T06:53:45.776Z,888.68
2018-10-18T06:54:45.765Z,888.70
2018-10-18T06:55:45.756Z,888.68
2018-10-18T06:56:45.742Z,888.72
2018-10-18T06:57:45.740Z,888.71
2018-10-18T06:58:45.718Z,888.69
2018-10-18T06:59:45.739Z,888.70
2018-10-18T07:00:45.696Z,888.71
2018-10-18T07:01:45.683Z,888.70
2018-10-18T07:02:45.677Z,888.70
2018-10-18T07:03:45.661Z,888.73
2018-10-18T07:04:45.648Z,888.76
2018-10-18T07:05:45.637Z,888.74
2018-10-18T07:06:45.627Z,888.74
2018-10-18T07:07:45.611Z,888.71
2018-10-18T07:08:45.611Z,888.75
2018-10-18T07:09:45.582Z,888.78
2018-10-18T07:10:45.582Z,888.76
2018-10-18T07:11:45.566Z,888.72
2018-10-18T07:12:45.552Z,888.73
2018-10-18T07:13:45.541Z,888.74
2018-10-18T07:14:45.520Z,888.77
2018-10-18T07:15:45.517Z,888.76
2018-10-18T07:16:45.506Z,888.78
2018-10-18T07:17:45.548Z,888.79
2018-10-18T07:18:45.483Z,888.80
2018-10-18T07:19:45.469Z,888.79
2018-10-18T07:20:45.459Z,888.78
2018-10-18T07:21:45.449Z,888.76
2018-10-18T07:22:45.429Z,888.73
2018-10-18T07:23:45.428Z,888.77
2018-10-18T07:24:45.413Z,888.79
2018-10-18T07:25:45.398Z,888.79
2018-10-18T07:26:45.388Z,888.79
2018-10-18T07:27:45.372Z,888.77
2018-10-18T07:28:45.363Z,888.77
2018-10-18T07:29:45.360Z,888.79
2018-10-18T07:30:45.344Z,888.78
2018-10-18T07:31:45.330Z,888.79
2018-10-18T07:32:45.320Z,888.75
2018-10-18T07:33:45.307Z,888.76
2018-10-18T07:34:45.314Z,888.79
2018-10-18T07:35:45.287Z,888.78
2018-10-18T07:36:45.274Z,888.78
2018-10-18T07:37:45.261Z,888.80
2018-10-18T07:38:45.245Z,888.80
2018-10-18T07:39:45.237Z,888.82
2018-10-18T07:40:45.225Z,888.83
2018-10-18T07:41:45.214Z,888.82
2018-10-18T07:42:45.206Z,888.85
2018-10-18T07:43:45.190Z,888.87
2018-10-18T07:44:45.178Z,888.90
2018-10-18T07:45:45.167Z,888.90
2018-10-18T07:46:45.171Z,888.91
2018-10-18T07:47:45.142Z,888.91
2018-10-18T07:48:45.130Z,888.94
2018-10-18T07:49:45.135Z,888.93
2018-10-18T07:50:45.108Z,888.92
2018-10-18T07:51:45.098Z,888.95
2018-10-18T07:52:45.087Z,888.94
2018-10-18T07:53:45.124Z,888.94
2018-10-18T07:54:45.070Z,888.93
2018-10-18T07:55:45.058Z,888.91
2018-10-18T07:56:45.046Z,888.93
2018-10-18T07:57:45.037Z,888.93
2018-10-18T07:58:45.024Z,888.90
2018-10-18T07:59:45.041Z,888.88
2018-10-18T08:00:45.153Z,888.92
2018-10-18T08:01:44.987Z,888.89
2018-10-18T08:02:44.969Z,888.92
2018-10-18T08:03:44.972Z,888.87
2018-10-18T08:04:44.953Z,888.90
2018-10-18T08:05:44.950Z,888.91
2018-10-18T08:06:44.932Z,888.90
2018-10-18T08:07:44.921Z,888.90
2018-10-18T08:08:44.912Z,888.92
2018-10-18T08:09:44.904Z,888.90
2018-10-18T08:10:44.898Z,888.91
2018-10-18T08:11:44.876Z,888.92
2018-10-18T08:12:44.868Z,888.91
2018-10-18T08:13:44.857Z,888.96
2018-10-18T08:14:44.843Z,888.93
2018-10-18T08:15:44.837Z,888.96
2018-10-18T08:16:44.880Z,888.95
2018-10-18T08:17:44.820Z,888.91
2018-10-18T08:18:44.802Z,888.95
2018-10-18T08:19:44.792Z,888.98
2018-10-18T08:20:44.780Z,888.93
2018-10-18T08:21:44.771Z,888.99
2018-10-18T08:22:44.864Z,888.97
2018-10-18T08:23:44.749Z,888.95
2018-10-18T08:24:44.735Z,888.94
2018-10-18T08:25:44.734Z,888.91
2018-10-18T08:26:44.713Z,888.93
2018-10-18T08:27:44.706Z,888.96
2018-10-18T08:28:44.694Z,888.97
2018-10-18T08:29:44.683Z,888.92
2018-10-18T08:30:44.674Z,888.98
2018-10-18T08:31:44.802Z,888.94
2018-10-18T08:32:44.654Z,888.99
2018-10-18T08:33:44.644Z,889.01
2018-10-18T08:34:44.630Z,889.00
2018-10-18T08:35:44.622Z,889.01
2018-10-18T08:36:44.608Z,889.01
2018-10-18T08:37:44.721Z,889.05
2018-10-18T08:38:44.588Z,889.06
2018-10-18T08:39:44.572Z,889.06
2018-10-18T08:40:44.563Z,889.05
2018-10-18T08:41:44.557Z,889.04
2018-10-18T08:42:44.545Z,889.06
2018-10-18T08:43:44.564Z,889.04
2018-10-18T08:44:44.530Z,889.07
2018-10-18T08:45:44.510Z,889.04
2018-10-18T08:46:44.502Z,889.08
2018-10-18T08:47:44.496Z,889.07
2018-10-18T08:48:44.481Z,889.07
2018-10-18T08:49:44.488Z,889.05
2018-10-18T08:50:44.461Z,889.05
2018-10-18T08:51:44.447Z,889.07
2018-10-18T08:52:44.431Z,889.07
2018-10-18T08:53:44.430Z,889.07
2018-10-18T08:54:44.416Z,889.09
2018-10-18T08:55:44.410Z,889.10
2018-10-18T08:56:44.396Z,889.13
2018-10-18T08:57:44.397Z,889.08
2018-10-18T08:58:44.374Z,889.10
2018-10-18T08:59:44.368Z,889.08
2018-10-18T09:00:44.377Z,889.08
2018-10-18T09:01:44.341Z,889.10
2018-10-18T09:02:44.335Z,889.09
2018-10-18T09:03:44.329Z,889.10
2018-10-18T09:04:44.311Z,889.10
2018-10-18T09:05:44.303Z,889.10
2018-10-18T09:06:44.291Z,889.12
2018-10-18T09:07:44.282Z,889.13
2018-10-18T09:08:44.273Z,889.11
2018-10-18T09:09:44.262Z,889.10
2018-10-18T09:10:44.253Z,889.12
2018-10-18T09:11:44.239Z,889.09
2018-10-18T09:12:44.226Z,889.12
2018-10-18T09:13:44.219Z,889.14
2018-10-18T09:14:44.207Z,889.09
2018-10-18T09:15:44.206Z,889.06
2018-10-18T09:16:44.189Z,889.10
2018-10-18T09:17:44.178Z,889.09
2018-10-18T09:18:44.175Z,889.08
2018-10-18T09:19:44.161Z,889.07
2018-10-18T09:20:44.149Z,889.08
2018-10-18T09:21:44.140Z,889.07
2018-10-18T09:22:44.129Z,889.09
2018-10-18T09:23:44.165Z,889.05
2018-10-18T09:24:44.116Z,889.06
2018-10-18T09:25:44.099Z,889.01
2018-10-18T09:26:44.088Z,889.00
2018-10-18T09:27:44.074Z,889.03
2018-10-18T09:28:44.072Z,889.03
2018-10-18T09:29:44.055Z,889.04
2018-10-18T09:30:44.046Z,889.05
2018-10-18T09:31:44.043Z,889.04
2018-10-18T09:32:44.029Z,889.07
2018-10-18T09:33:44.015Z,889.03
2018-10-18T09:34:44.006Z,889.05
2018-10-18T09:35:43.999Z,889.02
2018-10-18T09:36:43.986Z,889.02
2018-10-18T09:37:43.986Z,889.06
2018-10-18T09:38:43.968Z,889.01
2018-10-18T09:39:43.961Z,889.03
2018-10-18T09:40:43.953Z,889.06
2018-10-18T09:41:43.939Z,889.03
2018-10-18T09:42:43.929Z,889.03
2018-10-18T09:43:43.920Z,889.03
2018-10-18T09:44:43.948Z,889.03
2018-10-18T09:45:43.899Z,889.01
2018-10-18T09:46:43.887Z,888.98
2018-10-18T09:47:43.882Z,889.00
2018-10-18T09:48:43.868Z,889.01
2018-10-18T09:49:43.861Z,888.99
2018-10-18T09:50:43.849Z,888.97
2018-10-18T09:51:43.843Z,889.00
2018-10-18T09:52:43.829Z,889.02
2018-10-18T09:53:43.815Z,889.02
2018-10-18T09:54:43.812Z,889.02
2018-10-18T09:55:43.930Z,888.99
2018-10-18T09:56:43.795Z,888.99
2018-10-18T09:57:43.783Z,888.98
2018-10-18T09:58:43.775Z,888.96
2018-10-18T09:59:43.803Z,888.98
2018-10-18T10:00:43.758Z,888.96
2018-10-18T10:01:43.747Z,888.99
2018-10-18T10:02:43.740Z,888.97
2018-10-18T10:03:43.727Z,888.94
2018-10-18T10:04:43.720Z,888.95
2018-10-18T10:05:43.710Z,888.94
2018-10-18T10:06:43.698Z,888.89
2018-10-18T10:07:43.694Z,888.85
2018-10-18T10:08:43.680Z,888.90
2018-10-18T10:09:43.670Z,888.90
2018-10-18T10:10:43.660Z,888.93
2018-10-18T10:11:43.659Z,888.88
2018-10-18T10:12:43.640Z,888.88
2018-10-18T10:13:43.747Z,888.86
2018-10-18T10:14:43.624Z,888.85
2018-10-18T10:15:43.619Z,888.85
2018-10-18T10:16:43.605Z,888.90
2018-10-18T10:17:43.682Z,888.90
2018-10-18T10:18:43.593Z,888.89
2018-10-18T10:19:43.575Z,888.86
2018-10-18T10:20:43.569Z,888.85
2018-10-18T10:21:43.558Z,888.86
2018-10-18T10:22:43.557Z,888.82
2018-10-18T10:23:43.547Z,888.81
2018-10-18T10:24:43.627Z,888.79
2018-10-18T10:25:43.528Z,888.81
2018-10-18T10:26:43.511Z,888.79
2018-10-18T10:27:43.503Z,888.82
2018-10-18T10:28:43.497Z,888.79
2018-10-18T10:29:43.493Z,888.80
2018-10-18T10:30:43.475Z,888.81
2018-10-18T10:31:43.469Z,888.80
2018-10-18T10:32:43.507Z,888.80
2018-10-18T10:33:43.451Z,888.80
2018-10-18T10:34:43.442Z,888.76
2018-10-18T10:35:43.551Z,888.80
2018-10-18T10:36:43.422Z,888.80
2018-10-18T10:37:43.415Z,888.80
2018-10-18T10:38:43.405Z,888.76
2018-10-18T10:39:43.397Z,888.75
2018-10-18T10:40:43.388Z,888.72
2018-10-18T10:41:43.384Z,888.75
2018-10-18T10:42:43.426Z,888.74
2018-10-18T10:43:43.369Z,888.74
2018-10-18T10:44:43.378Z,888.73
2018-10-18T10:45:43.450Z,888.70
2018-10-18T10:46:43.334Z,888.71
2018-10-18T10:47:43.324Z,888.69
2018-10-18T10:48:43.323Z,888.68
2018-10-18T10:49:43.309Z,888.67
2018-10-18T10:50:43.301Z,888.62
2018-10-18T10:51:43.291Z,888.62
2018-10-18T10:52:43.282Z,888.66
2018-10-18T10:53:43.276Z,888.63
2018-10-18T10:54:43.268Z,888.57
2018-10-18T10:55:43.257Z,888.58
2018-10-18T10:56:43.254Z,888.55
2018-10-18T10:57:43.243Z,888.57
2018-10-18T10:58:43.240Z,888.57
2018-10-18T10:59:43.224Z,888.53
2018-10-18T11:00:43.216Z,888.55
2018-10-18T11:01:43.207Z,888.51
2018-10-18T11:02:43.197Z,888.55
2018-10-18T11:03:43.196Z,888.54
2018-10-18T11:04:43.181Z,888.52
2018-10-18T11:05:43.173Z,888.53
2018-10-18T11:06:43.169Z,888.53
2018-10-18T11:07:43.153Z,888.52
2018-10-18T11:08:43.151Z,888.52
2018-10-18T11:09:43.245Z,888.56
2018-10-18T11:10:43.130Z,888.51
2018-10-18T11:11:43.167Z,888.51
2018-10-18T11:12:43.114Z,888.50
2018-10-18T11:13:43.102Z,888.48
2018-10-18T11:14:43.096Z,888.48
2018-10-18T11:15:43.084Z,888.46
2018-10-18T11:16:43.078Z,888.46
2018-10-18T11:17:43.073Z,888.42
2018-10-18T11:18:43.067Z,888.42
2018-10-18T11:19:43.056Z,888.45
2018-10-18T11:20:43.050Z,888.42
2018-10-18T11:21:43.107Z,888.42
2018-10-18T11:22:43.031Z,888.41
2018-10-18T11:23:43.017Z,888.43
2018-10-18T11:24:43.077Z,888.40
2018-10-18T11:25:43.008Z,888.37
2018-10-18T11:26:42.998Z,888.37
2018-10-18T11:27:42.988Z,888.37
2018-10-18T11:28:42.989Z,888.33
2018-10-18T11:29:42.974Z,888.32
2018-10-18T11:30:42.967Z,888.33
2018-10-18T11:31:42.955Z,888.34
2018-10-18T11:32:42.955Z,888.34
2018-10-18T11:33:42.947Z,888.34
2018-10-18T11:34:42.932Z,888.34
2018-10-18T11:35:42.924Z,888.34
2018-10-18T11:36:42.918Z,888.32
2018-10-18T11:37:42.906Z,888.32
2018-10-18T11:38:42.903Z,888.30
2018-10-18T11:39:42.903Z,888.30
2018-10-18T11:40:42.891Z,888.29
2018-10-18T11:41:42.875Z,888.28
2018-10-18T11:42:42.893Z,888.28
2018-10-18T11:43:42.861Z,888.31
2018-10-18T11:44:42.851Z,888.30
2018-10-18T11:45:42.843Z,888.28
2018-10-18T11:46:42.839Z,888.30
2018-10-18T11:47:42.829Z,888.27
2018-10-18T11:48:42.823Z,888.26
2018-10-18T11:49:42.812Z,888.25
2018-10-18T11:50:42.809Z,888.23
2018-10-18T11:51:42.912Z,888.24
2018-10-18T11:52:42.790Z,888.23
2018-10-18T11:53:42.785Z,888.22
2018-10-18T11:54:42.776Z,888.20
2018-10-18T11:55:42.766Z,888.21
2018-10-18T11:56:42.764Z,888.22
2018-10-18T11:57:42.763Z,888.22
2018-10-18T11:58:42.748Z,888.22
2018-10-18T11:59:42.739Z,888.23
2018-10-18T12:00:42.728Z,888.22
2018-10-18T12:01:42.718Z,888.16
2018-10-18T12:02:42.894Z,888.19
2018-10-18T12:03:42.706Z,888.20
2018-10-18T12:04:42.698Z,888.16
2018-10-18T12:05:42.688Z,888.17
2018-10-18T12:06:42.679Z,888.16
2018-10-18T12:07:42.667Z,888.15
2018-10-18T12:08:42.667Z,888.12
2018-10-18T12:09:42.658Z,888.13
2018-10-18T12:10:42.655Z,888.13
2018-10-18T12:11:42.644Z,888.12
2018-10-18T12:12:42.637Z,888.13
2018-10-18T12:13:42.627Z,888.11
2018-10-18T12:14:42.636Z,888.12
2018-10-18T12:15:42.614Z,888.10
2018-10-18T12:16:42.597Z,888.10
2018-10-18T12:17:42.597Z,888.09
2018-10-18T12:18:42.588Z,888.08
2018-10-18T12:19:42.583Z,888.14
2018-10-18T12:20:42.583Z,888.15
2018-10-18T12:21:42.571Z,888.14
2018-10-18T12:22:42.557Z,888.11
2018-10-18T12:23:42.546Z,888.12
2018-10-18T12:24:42.544Z,888.11
2018-10-18T12:25:42.533Z,888.13
2018-10-18T12:26:42.551Z,888.10
2018-10-18T12:27:42.523Z,888.12
2018-10-18T12:28:42.510Z,888.10